ADDS METAR Data

Data at: 0043 UTC 21 Nov 2017

METAR for:KORD (Chicago/O'Hare Intl, IL, US)
Text:KORD 202351Z 20018G26KT 10SM BKN250 10/01 A2973 RMK AO2 PK WND 19030/2309 SLP071 T01000006 10111 20089 56009
Temperature: 10.0°C ( 50°F)
Dewpoint: 0.6°C ( 33°F) [RH = 52%]
Pressure (altimeter):29.73 inches Hg (1006.9 mb) [Sea level pressure: 1007.1 mb]
Winds:from the SSW (200 degrees) at 21 MPH (18 knots; 9.3 m/s) gusting to 30 MPH (26 knots; 13.4 m/s)
Visibility:10 or more sm (16+ km)
Ceiling:25000 feet AGL
Clouds: broken clouds at 25000 feet AGL